Time;durP1;ratioP1;P1;durP2;ratioP2;P2;SDS_P1;SDS_P2;PMS_P1;PMS_P2;Temp;Humidity;BMP_temperature;BMP_pressure;BME280_temperature;BME280_humidity;BME280_pressure;Samples;Min_cycle;Max_cycle;Signal;HPM_P1;HPM_P2
2023/10/05 00:01:18;;;;;;;;;16.00;12.33;;;;;16.65;59.66;102194.25;5017302;28;45445;-72
2023/10/05 00:03:50;;;;;;;;;16.00;11.67;;;;;16.62;59.86;102210.13;5015283;28;47707;-71
2023/10/05 00:06:17;;;;;;;;;18.33;14.00;;;;;16.56;60.17;102216.28;5017431;28;45478;-73
2023/10/05 00:08:47;;;;;;;;;14.00;14.00;;;;;16.53;60.60;102222.44;5016756;28;45419;-74
2023/10/05 00:11:29;;;;;;;;;19.00;12.67;;;;;16.42;60.08;102203.06;5016465;28;45488;-73
2023/10/05 00:14:06;;;;;;;;;21.00;14.00;;;;;16.50;60.30;102197.78;5017095;28;45603;-74
2023/10/05 00:16:38;;;;;;;;;13.00;11.67;;;;;16.48;60.50;102191.59;5035151;28;45350;-74
2023/10/05 00:19:12;;;;;;;;;16.50;12.00;;;;;16.58;60.67;102203.06;5019531;28;45506;-74
2023/10/05 00:21:50;;;;;;;;;16.33;13.67;;;;;16.49;61.03;102210.13;5020531;28;45532;-73
2023/10/05 00:24:18;;;;;;;;;16.67;11.00;;;;;16.05;61.38;102157.19;5023737;28;45544;-73
2023/10/05 00:26:49;;;;;;;;;14.00;10.33;;;;;16.44;60.83;102206.56;5023022;28;45418;-73
2023/10/05 00:31:44;;;;;;;;;16.00;14.00;;;;;16.42;60.86;102204.81;5016836;28;45380;-72
2023/10/05 00:34:13;;;;;;;;;13.67;11.00;;;;;16.23;61.27;102182.75;5016931;28;45569;-73
2023/10/05 00:36:43;;;;;;;;;18.00;12.67;;;;;16.29;61.26;102188.94;5014963;28;45358;-74
2023/10/05 00:39:09;;;;;;;;;16.67;12.33;;;;;16.27;61.23;102176.59;5016696;28;46153;-71
2023/10/05 00:41:36;;;;;;;;;14.67;13.67;;;;;16.34;61.04;102202.16;5017002;28;45367;-73
2023/10/05 00:44:07;;;;;;;;;13.33;12.67;;;;;15.74;61.42;102108.69;5015196;28;45647;-73
2023/10/05 00:46:35;;;;;;;;;14.67;13.67;;;;;16.02;61.50;102159.81;5015843;28;45398;-74
2023/10/05 00:49:12;;;;;;;;;14.67;12.33;;;;;16.28;61.05;102194.25;5016440;28;45454;-73
2023/10/05 00:51:41;;;;;;;;;15.00;13.33;;;;;16.15;60.97;102161.59;5014675;28;45360;-72
2023/10/05 00:54:11;;;;;;;;;14.67;11.33;;;;;15.97;61.35;102138.69;5016521;28;45540;-74
2023/10/05 00:56:41;;;;;;;;;15.67;12.33;;;;;16.28;61.71;102200.41;5016555;28;45454;-72
2023/10/05 00:59:11;;;;;;;;;14.00;12.00;;;;;16.11;61.47;102163.38;5008469;28;45426;-72
2023/10/05 01:07:18;;;;;;;;;13.33;10.33;;;;;16.14;61.60;102174.84;4997530;28;45459;-72
2023/10/05 01:14:56;;;;;;;;;10.33;9.33;;;;;16.08;61.18;102175.69;5015799;28;46099;-72
2023/10/05 01:17:27;;;;;;;;;17.67;13.00;;;;;16.34;61.39;102207.44;5016604;28;45367;-72
2023/10/05 01:19:56;;;;;;;;;12.00;9.00;;;;;16.39;61.11;102215.38;5012689;28;45701;-73
2023/10/05 01:22:24;;;;;;;;;18.00;10.00;;;;;16.41;61.12;102206.56;5014914;28;45655;-73
2023/10/05 01:24:51;;;;;;;;;9.00;7.67;;;;;16.24;60.82;102169.53;5015877;28;45457;-72
2023/10/05 01:27:18;;;;;;;;;15.00;11.67;;;;;16.11;61.02;102129.00;5013416;28;45618;-72
2023/10/05 01:29:43;;;;;;;;;16.00;12.00;;;;;16.41;61.30;102192.47;5014272;28;45387;-73
2023/10/05 01:32:15;;;;;;;;;11.33;10.00;;;;;16.36;61.16;102197.75;5011085;28;45336;-72
2023/10/05 01:34:41;;;;;;;;;13.67;13.00;;;;;16.26;61.14;102178.38;5013699;28;46265;-70
2023/10/05 01:37:09;;;;;;;;;13.33;10.33;;;;;16.44;60.83;102180.13;5012880;28;44861;-70
2023/10/05 01:39:43;;;;;;;;;16.67;13.00;;;;;16.42;61.34;102173.06;5018725;28;45481;-73
2023/10/05 01:42:11;;;;;;;;;22.00;13.00;;;;;15.93;61.58;102084.06;5020821;28;45623;-71
2023/10/05 01:44:40;;;;;;;;;16.00;13.33;;;;;16.38;61.48;102156.34;5015890;28;46534;-72
2023/10/05 01:47:06;;;;;;;;;16.00;12.33;;;;;16.42;61.91;102176.63;5018478;28;45589;-69
2023/10/05 01:49:33;;;;;;;;;16.67;11.33;;;;;16.35;61.94;102172.22;5018759;28;45407;-70
2023/10/05 01:51:59;;;;;;;;;15.00;12.00;;;;;16.43;61.78;102178.38;5018893;28;45442;-71
2023/10/05 01:54:27;;;;;;;;;18.00;10.00;;;;;16.15;62.23;102140.44;5017419;28;46496;-73
2023/10/05 01:56:55;;;;;;;;;12.33;10.33;;;;;16.13;62.67;102150.13;5017459;28;45574;-74
2023/10/05 01:59:22;;;;;;;;;15.67;13.00;;;;;16.22;62.75;102179.22;5020953;28;45423;-71
2023/10/05 02:01:48;;;;;;;;;20.00;12.33;;;;;15.83;62.86;102124.56;5020363;28;45501;-73
2023/10/05 02:04:15;;;;;;;;;15.67;13.33;;;;;16.24;62.93;102190.69;5020069;28;45604;-71
2023/10/05 02:06:42;;;;;;;;;14.67;11.67;;;;;16.07;62.87;102163.34;5019193;28;45488;-74
2023/10/05 02:09:14;;;;;;;;;16.67;11.00;;;;;15.98;62.57;102158.94;5019090;28;45558;-73
2023/10/05 02:11:41;;;;;;;;;13.00;10.67;;;;;16.04;62.92;102169.53;5018970;28;45449;-73
2023/10/05 02:14:06;;;;;;;;;13.67;9.00;;;;;16.21;62.90;102184.53;5019011;28;45308;-73
2023/10/05 02:16:33;;;;;;;;;13.33;11.33;;;;;16.19;63.02;102167.78;5018087;28;45366;-71
2023/10/05 02:19:03;;;;;;;;;20.33;12.33;;;;;16.27;62.97;102174.81;5019925;28;45451;-72
2023/10/05 02:21:37;;;;;;;;;17.00;12.00;;;;;16.02;63.13;102128.13;5019606;28;45540;-73
2023/10/05 02:24:22;;;;;;;;;16.67;12.00;;;;;16.09;63.33;102133.41;5019024;28;45680;-72
2023/10/05 02:27:11;;;;;;;;;11.33;9.33;;;;;16.13;62.94;102136.03;5017034;28;45477;-71
2023/10/05 02:29:40;;;;;;;;;15.33;11.33;;;;;16.29;62.91;102164.25;5018545;28;45446;-72
2023/10/05 02:32:10;;;;;;;;;13.33;11.00;;;;;16.13;63.04;102151.91;5019905;28;45453;-72
2023/10/05 02:34:59;;;;;;;;;12.33;10.67;;;;;16.25;63.08;102171.31;5030620;28;47404;-75
2023/10/05 02:37:28;;;;;;;;;13.67;10.67;;;;;15.98;62.75;102135.13;5007315;28;45557;-71
2023/10/05 02:39:54;;;;;;;;;17.00;14.33;;;;;16.19;63.01;102168.66;5018358;28;45660;-71
2023/10/05 02:42:25;;;;;;;;;12.67;11.00;;;;;16.13;62.89;102166.00;5018636;28;45350;-72
2023/10/05 02:44:53;;;;;;;;;15.33;11.00;;;;;15.89;62.83;102124.56;5018184;28;45535;-73
2023/10/05 02:47:23;;;;;;;;;10.33;9.00;;;;;15.72;62.75;102087.53;5018687;28;45501;-70
2023/10/05 02:49:49;;;;;;;;;11.67;11.67;;;;;16.09;62.03;102133.41;5018400;28;45344;-73
2023/10/05 02:52:19;;;;;;;;;16.00;10.67;;;;;16.33;62.29;102163.41;5017291;28;45542;-70
2023/10/05 02:54:49;;;;;;;;;13.67;9.67;;;;;16.07;61.72;102129.88;5018737;28;45527;-73
2023/10/05 02:57:19;;;;;;;;;13.00;11.00;;;;;16.33;61.56;102173.97;5016847;28;45478;-74
2023/10/05 02:59:46;;;;;;;;;9.33;7.33;;;;;16.33;60.87;102156.34;5018971;28;45387;-72
2023/10/05 03:02:16;;;;;;;;;10.00;4.67;;;;;16.17;60.61;102109.63;5019244;28;45513;-72
2023/10/05 03:04:58;;;;;;;;;13.00;6.33;;;;;16.37;60.03;102140.47;5032835;28;46637;-72
2023/10/05 03:07:25;;;;;;;;;8.33;5.00;;;;;16.21;60.23;102118.44;5017657;28;45409;-72
2023/10/05 03:09:52;;;;;;;;;12.00;7.00;;;;;16.20;60.64;102122.81;5033039;28;45424;-72
2023/10/05 03:12:23;;;;;;;;;9.00;5.33;;;;;16.55;60.77;102161.63;5018201;28;45397;-70
2023/10/05 03:14:50;;;;;;;;;7.00;6.00;;;;;16.49;59.50;102143.09;5018270;28;45648;-72
2023/10/05 03:17:21;;;;;;;;;10.33;5.33;;;;;16.36;59.60;102131.66;5016602;28;45493;-72
2023/10/05 03:19:50;;;;;;;;;7.00;6.00;;;;;16.47;59.60;102151.06;5030414;28;45406;-72
2023/10/05 03:22:17;;;;;;;;;7.67;5.33;;;;;16.49;58.94;102143.09;5012049;28;45553;-73
2023/10/05 03:24:45;;;;;;;;;6.33;5.00;;;;;16.57;58.94;102151.06;5015816;28;45463;-72
2023/10/05 03:27:16;;;;;;;;;4.67;4.00;;;;;16.52;59.11;102143.13;5018264;28;45524;-73
2023/10/05 03:29:46;;;;;;;;;8.00;5.00;;;;;16.41;59.08;102137.81;5016017;28;45494;-71
2023/10/05 03:34:43;;;;;;;;;8.33;6.00;;;;;16.27;59.26;102106.09;5010396;28;45474;-72
2023/10/05 03:37:13;;;;;;;;;7.67;6.67;;;;;16.53;59.35;102160.75;5014930;28;46971;-72
2023/10/05 03:40:19;;;;;;;;;7.00;5.00;;;;;16.57;58.95;102159.88;5024459;28;45461;-72
2023/10/05 03:42:35;;;;;;;;;5.67;5.00;;;;;16.31;58.91;102107.84;5010591;28;45449;-73
2023/10/05 03:45:08;;;;;;;;;5.67;4.33;;;;;16.47;59.01;102144.91;5009683;28;46137;-74
2023/10/05 03:47:37;;;;;;;;;5.00;4.00;;;;;16.35;59.13;102126.34;5015948;28;45637;-71
2023/10/05 03:50:05;;;;;;;;;10.00;4.00;;;;;16.50;59.04;102171.34;5016251;28;45758;-72
2023/10/05 03:52:35;;;;;;;;;6.33;5.00;;;;;16.01;59.05;102073.47;5021713;28;45676;-70
2023/10/05 03:55:10;;;;;;;;;6.00;4.67;;;;;16.48;58.91;102166.03;5007377;28;46353;-73
2023/10/05 03:57:41;;;;;;;;;8.67;6.33;;;;;16.08;59.29;102097.25;5016102;28;45521;-70
2023/10/05 04:00:23;;;;;;;;;10.33;6.67;;;;;16.47;59.46;102176.63;5013656;28;45280;-71
2023/10/05 04:02:57;;;;;;;;;7.33;6.00;;;;;16.29;59.01;102151.03;5005085;28;45435;-73
2023/10/05 04:05:23;;;;;;;;;4.33;4.33;;;;;16.42;59.38;102178.38;5012750;28;45514;-70
2023/10/05 04:07:55;;;;;;;;;9.33;4.67;;;;;16.26;59.19;102157.22;5013325;28;45546;-72
2023/10/05 04:10:23;;;;;;;;;8.33;5.00;;;;;16.31;59.08;102154.56;5017127;28;45473;-72
2023/10/05 04:12:53;;;;;;;;;8.33;4.33;;;;;15.80;59.33;102079.63;5018156;28;45491;-72
2023/10/05 04:15:20;;;;;;;;;9.67;5.67;;;;;15.86;59.73;102093.72;5017485;28;45696;-72
2023/10/05 04:17:49;;;;;;;;;9.33;7.33;;;;;16.25;61.34;102168.69;5014755;28;45812;-73
2023/10/05 04:20:48;;;;;;;;;9.33;9.33;;;;;16.14;61.89;102164.25;5018181;28;45516;-71
2023/10/05 04:23:07;;;;;;;;;14.00;10.00;;;;;15.95;61.99;102153.63;5016167;28;45429;-71
2023/10/05 04:25:33;;;;;;;;;7.33;6.33;;;;;15.83;62.38;102145.69;5016482;28;45461;-73
2023/10/05 04:28:00;;;;;;;;;11.00;10.00;;;;;15.77;62.30;102130.69;5016111;28;45457;-71
2023/10/05 04:30:27;;;;;;;;;10.33;9.00;;;;;16.03;62.16;102173.03;5014994;28;45382;-72
2023/10/05 04:32:53;;;;;;;;;11.33;8.00;;;;;16.07;62.03;102184.50;5016869;28;45825;-72
2023/10/05 04:35:29;;;;;;;;;9.33;8.00;;;;;16.05;61.93;102189.78;5016960;28;46273;-71
2023/10/05 04:37:56;;;;;;;;;10.00;8.33;;;;;16.13;62.26;102189.78;5016044;28;45465;-72
2023/10/05 04:40:24;;;;;;;;;7.67;7.67;;;;;16.00;62.29;102180.94;5017574;28;45494;-73
2023/10/05 04:42:58;;;;;;;;;11.00;6.67;;;;;15.53;62.34;102093.63;5015533;28;45619;-71
2023/10/05 04:45:24;;;;;;;;;12.33;9.67;;;;;15.87;62.20;102153.63;5016051;28;46470;-71
2023/10/05 04:47:58;;;;;;;;;10.00;7.67;;;;;15.92;62.59;102165.94;5016516;28;45416;-73
2023/10/05 04:50:24;;;;;;;;;12.00;8.67;;;;;15.97;62.68;102185.34;5015867;28;45567;-72
2023/10/05 04:52:51;;;;;;;;;15.33;9.67;;;;;15.97;62.95;102182.69;5020745;28;45553;-71
2023/10/05 04:55:23;;;;;;;;;15.00;11.00;;;;;15.77;63.01;102161.50;5014752;28;45486;-72
2023/10/05 04:58:14;;;;;;;;;13.67;9.00;;;;;15.86;62.77;102165.06;5016789;28;45505;-72
2023/10/05 05:05:57;;;;;;;;;17.33;9.33;;;;;15.52;63.65;102140.28;5016234;28;45395;-74
2023/10/05 05:08:22;;;;;;;;;11.00;10.33;;;;;14.99;63.80;102075.78;5017422;28;45433;-75
2023/10/05 05:10:48;;;;;;;;;10.33;9.00;;;;;15.58;63.98;102174.59;5015620;28;45481;-72
2023/10/05 05:13:14;;;;;;;;;12.33;10.33;;;;;15.00;64.22;102080.19;5019103;28;45720;-73
2023/10/05 05:15:40;;;;;;;;;14.33;11.00;;;;;15.45;64.66;102186.88;5019463;28;46039;-74
2023/10/05 05:18:15;;;;;;;;;11.33;8.67;;;;;15.27;64.51;102144.53;5020816;28;45761;-73
2023/10/05 05:20:47;;;;;;;;;10.33;9.67;;;;;14.62;65.01;102043.94;5015600;28;45497;-72
2023/10/05 05:23:13;;;;;;;;;13.67;10.00;;;;;14.99;64.77;102115.34;5019757;28;45244;-73
2023/10/05 05:25:39;;;;;;;;;9.67;9.33;;;;;15.24;65.14;102155.97;5018854;28;45429;-73
2023/10/05 05:28:06;;;;;;;;;12.00;11.33;;;;;15.25;65.11;102163.00;5019307;28;45492;-70
2023/10/05 05:30:40;;;;;;;;;10.00;10.00;;;;;14.99;65.42;102123.28;5031022;28;45967;-74
2023/10/05 05:33:10;;;;;;;;;9.67;8.00;;;;;15.24;65.38;102158.63;5020646;28;45497;-72
2023/10/05 05:35:43;;;;;;;;;10.67;8.67;;;;;15.25;65.59;102175.31;5019410;28;45304;-72
2023/10/05 05:38:09;;;;;;;;;9.67;8.67;;;;;15.10;65.68;102156.78;5023359;28;45454;-74
2023/10/05 05:40:36;;;;;;;;;12.00;9.67;;;;;15.07;65.57;102141.81;5022527;28;45303;-73
2023/10/05 05:43:12;;;;;;;;;11.33;8.00;;;;;15.11;65.74;102164.69;5020897;28;45512;-73
2023/10/05 05:45:44;;;;;;;;;8.33;7.67;;;;;14.90;65.95;102141.72;5020329;28;45722;-72
2023/10/05 05:48:14;;;;;;;;;9.67;7.67;;;;;15.01;66.01;102176.06;5024544;28;45389;-71
2023/10/05 05:50:42;;;;;;;;;15.00;11.67;;;;;15.00;65.72;102177.81;5018986;28;45355;-72
2023/10/05 05:53:11;;;;;;;;;12.33;8.67;;;;;14.78;66.06;102139.88;5019052;28;45316;-71
2023/10/05 05:55:41;;;;;;;;;11.00;9.33;;;;;14.80;65.98;102155.69;5018353;28;45756;-73
2023/10/05 05:58:07;;;;;;;;;12.00;10.33;;;;;14.40;65.58;102084.16;5017850;28;45457;-75
2023/10/05 06:00:33;;;;;;;;;15.00;10.33;;;;;15.20;65.33;102191.13;5018401;28;45851;-73
2023/10/05 06:03:04;;;;;;;;;14.67;9.67;;;;;15.16;65.20;102194.66;5017263;28;45594;-74
2023/10/05 06:05:31;;;;;;;;;14.33;9.67;;;;;14.63;65.71;102116.00;5013914;28;45607;-74
2023/10/05 06:08:01;;;;;;;;;13.00;11.33;;;;;15.06;65.49;102176.97;5019030;28;45458;-75
2023/10/05 06:10:28;;;;;;;;;14.00;11.33;;;;;15.18;64.67;102195.50;5018785;28;45394;-74
2023/10/05 06:12:54;;;;;;;;;10.00;7.67;;;;;14.99;65.10;102157.56;5018965;28;45568;-73
2023/10/05 06:15:21;;;;;;;;;9.67;9.67;;;;;14.48;64.44;102071.06;5018296;28;45450;-73
2023/10/05 06:17:49;;;;;;;;;11.67;10.00;;;;;15.37;64.57;102206.19;5018403;28;45851;-73
2023/10/05 06:20:15;;;;;;;;;12.33;8.00;;;;;15.45;63.80;102212.41;5016119;28;45415;-72
2023/10/05 06:22:45;;;;;;;;;9.33;8.33;;;;;15.43;64.39;102206.22;5019863;28;45445;-71
2023/10/05 06:25:12;;;;;;;;;10.67;8.67;;;;;15.58;63.87;102222.16;5018432;28;45437;-73
2023/10/05 06:27:41;;;;;;;;;11.33;9.33;;;;;15.57;63.73;102228.31;5017816;28;45442;-72
2023/10/05 06:30:10;;;;;;;;;12.67;9.33;;;;;15.58;64.32;102223.91;5016820;28;45539;-73
2023/10/05 06:32:43;;;;;;;;;10.00;9.33;;;;;15.38;63.77;102182.44;5019109;28;45563;-74
2023/10/05 06:35:11;;;;;;;;;9.67;9.33;;;;;15.66;63.98;102211.59;5018329;28;47325;-72
2023/10/05 06:37:44;;;;;;;;;12.33;9.33;;;;;15.64;64.33;102208.09;5011219;28;45796;-72
2023/10/05 06:40:14;;;;;;;;;13.67;11.00;;;;;15.61;64.06;102197.50;5016295;28;45907;-72
2023/10/05 06:42:43;;;;;;;;;14.33;11.00;;;;;15.37;63.33;102116.44;5012645;28;45453;-75
2023/10/05 06:45:13;;;;;;;;;12.67;10.00;;;;;15.98;62.82;102198.56;5013674;28;46486;-73
2023/10/05 06:47:39;;;;;;;;;11.33;10.33;;;;;16.02;62.45;102207.41;5004460;28;45652;-71
2023/10/05 06:50:09;;;;;;;;;19.00;10.33;;;;;15.90;62.07;102179.19;5002845;28;45548;-71
2023/10/05 06:52:39;;;;;;;;;15.00;12.00;;;;;16.06;61.74;102217.97;5002619;28;45338;-71
2023/10/05 06:55:15;;;;;;;;;16.67;13.33;;;;;16.03;62.39;102239.09;5017251;28;45541;-73
2023/10/05 06:57:44;;;;;;;;;15.00;14.33;;;;;15.93;62.17;102218.81;5012683;28;45691;-73
2023/10/05 07:00:22;;;;;;;;;16.00;13.33;;;;;15.79;62.74;102202.91;5012086;28;45497;-74
2023/10/05 07:03:02;;;;;;;;;13.33;12.67;;;;;15.97;63.02;102230.25;5006772;28;45423;-72
2023/10/05 07:05:28;;;;;;;;;14.33;13.67;;;;;15.75;63.45;102195.84;5026380;28;45365;-73
2023/10/05 07:07:56;;;;;;;;;12.33;12.33;;;;;15.93;63.06;102216.16;5019611;28;45296;-74
2023/10/05 07:10:59;;;;;;;;;;;;;;;;;;;;;
2023/10/05 07:13:28;;;;;;;;;20.00;15.67;;;;;16.10;62.30;102205.66;4980174;28;64229;-72
2023/10/05 07:16:09;;;;;;;;;12.33;11.33;;;;;16.24;61.92;102233.00;5010295;28;46139;-74
2023/10/05 07:18:34;;;;;;;;;18.00;16.67;;;;;16.33;61.62;102246.22;5017235;28;45469;-73
2023/10/05 07:21:00;;;;;;;;;17.67;14.67;;;;;16.26;61.88;102246.22;5018722;28;45668;-75
2023/10/05 07:23:29;;;;;;;;;22.33;20.00;;;;;16.26;61.63;102251.50;5018228;28;45396;-74
2023/10/05 07:25:55;;;;;;;;;21.00;15.00;;;;;16.33;61.70;102254.16;5017937;28;45569;-74
2023/10/05 07:28:20;;;;;;;;;19.33;15.33;;;;;16.37;61.35;102248.88;5018305;28;45455;-75
2023/10/05 07:30:46;;;;;;;;;21.33;15.00;;;;;16.36;61.62;102255.94;5019322;28;45442;-74
2023/10/05 07:33:11;;;;;;;;;20.00;18.33;;;;;16.37;61.31;102239.19;5018374;28;45357;-72
2023/10/05 07:35:38;;;;;;;;;14.33;10.33;;;;;16.42;60.77;102225.97;5017681;28;46142;-75
2023/10/05 07:38:06;;;;;;;;;19.67;16.67;;;;;16.56;60.89;102231.28;5016084;28;45392;-72
2023/10/05 07:40:35;;;;;;;;;19.33;18.33;;;;;16.77;60.59;102235.69;5020196;28;45400;-73
2023/10/05 07:43:06;;;;;;;;;19.00;15.00;;;;;16.97;59.87;102233.09;5018691;28;45479;-73
2023/10/05 07:45:33;;;;;;;;;21.67;18.67;;;;;16.61;59.50;102148.41;5017198;28;46272;-77
2023/10/05 07:47:59;;;;;;;;;17.00;17.00;;;;;17.17;59.09;102239.25;5017237;28;45386;-78
2023/10/05 07:50:26;;;;;;;;;16.67;15.00;;;;;17.25;58.49;102221.59;5016566;28;45529;-73
2023/10/05 07:52:52;;;;;;;;;21.33;16.33;;;;;17.59;58.11;102270.06;5016447;28;45376;-74
2023/10/05 07:55:20;;;;;;;;;17.33;15.00;;;;;17.66;58.10;102276.22;5016074;28;46267;-74
2023/10/05 07:57:45;;;;;;;;;18.33;14.33;;;;;17.61;57.50;102240.91;5017067;28;45509;-73
2023/10/05 08:00:12;;;;;;;;;17.00;15.67;;;;;17.64;57.57;102246.19;5016652;28;45683;-74
2023/10/05 08:02:39;;;;;;;;;20.67;13.67;;;;;17.54;58.03;102241.81;5016656;28;45517;-73
2023/10/05 08:05:09;;;;;;;;;18.00;16.67;;;;;17.50;57.81;102242.72;5016584;28;45572;-73
2023/10/05 08:07:35;;;;;;;;;16.33;13.67;;;;;17.53;58.10;102238.25;5011366;28;45447;-70
2023/10/05 08:10:03;;;;;;;;;20.00;16.33;;;;;17.31;58.41;102232.16;5008784;28;45613;-74
2023/10/05 08:12:29;;;;;;;;;22.33;17.33;;;;;17.44;58.05;102270.09;5013867;28;45444;-76
2023/10/05 08:14:55;;;;;;;;;19.33;17.00;;;;;17.03;57.77;102193.38;5017357;28;46029;-75
2023/10/05 08:17:21;;;;;;;;;21.33;16.00;;;;;17.27;58.02;102240.97;5015141;28;45455;-74
2023/10/05 08:19:53;;;;;;;;;15.33;14.67;;;;;17.45;58.08;102274.50;5017478;28;45682;-75
2023/10/05 08:22:36;;;;;;;;;18.67;13.33;;;;;17.33;58.18;102274.53;5021019;28;45878;-75
2023/10/05 08:25:10;;;;;;;;;19.33;16.33;;;;;17.25;57.90;102255.09;5006022;28;46737;-73
2023/10/05 08:27:37;;;;;;;;;16.33;14.00;;;;;17.50;57.91;102290.38;5031060;28;45500;-74
2023/10/05 08:30:04;;;;;;;;;16.33;13.00;;;;;17.52;58.14;102304.53;5009833;28;45348;-74
2023/10/05 08:32:33;;;;;;;;;20.00;16.67;;;;;17.64;57.86;102311.56;4999432;28;45423;-74
2023/10/05 08:35:07;;;;;;;;;15.67;13.33;;;;;17.69;57.68;102318.59;4997984;28;46425;-73
2023/10/05 08:37:34;;;;;;;;;18.67;16.33;;;;;17.58;57.38;102301.84;5008487;28;45386;-75
2023/10/05 08:40:00;;;;;;;;;13.00;11.33;;;;;17.78;57.72;102337.13;5015367;28;45345;-74
2023/10/05 08:42:27;;;;;;;;;12.33;11.67;;;;;17.81;57.56;102330.97;5014279;28;45842;-74
2023/10/05 08:44:53;;;;;;;;;19.00;14.00;;;;;17.76;56.83;102298.28;5010896;28;46313;-75
2023/10/05 08:47:20;;;;;;;;;17.67;12.67;;;;;18.15;56.54;102307.91;5008368;28;45468;-73
2023/10/05 08:49:46;;;;;;;;;17.67;14.00;;;;;18.01;56.17;102294.69;5008816;28;46044;-73
2023/10/05 08:52:19;;;;;;;;;14.33;14.00;;;;;17.99;56.63;102301.75;5016302;28;45328;-71
2023/10/05 08:54:51;;;;;;;;;19.67;16.33;;;;;18.13;56.20;102300.84;5015277;28;45693;-72
2023/10/05 08:57:17;;;;;;;;;16.00;13.33;;;;;17.89;56.06;102272.63;5006957;28;45516;-74
2023/10/05 08:59:45;;;;;;;;;12.00;11.00;;;;;18.14;56.23;102322.03;5012512;28;45383;-73
2023/10/05 09:02:11;;;;;;;;;12.00;9.00;;;;;18.30;55.94;102344.06;5017657;28;45552;-73
2023/10/05 09:04:43;;;;;;;;;16.67;13.00;;;;;18.28;55.85;102334.34;5017011;28;46578;-73
2023/10/05 09:07:27;;;;;;;;;17.00;14.50;;;;;18.26;56.40;102325.50;5016853;28;45506;-72
2023/10/05 09:09:54;;;;;;;;;18.33;15.67;;;;;18.16;56.47;102325.56;5017474;28;45414;-74
2023/10/05 09:12:34;;;;;;;;;15.67;15.00;;;;;17.99;56.52;102315.03;5020347;28;45823;-74
2023/10/05 09:15:18;;;;;;;;;20.33;17.33;;;;;18.16;56.46;102327.34;5015315;28;45465;-77
2023/10/05 09:18:17;;;;;;;;;19.33;14.33;;;;;18.18;56.30;102310.53;5015866;28;45340;-74
2023/10/05 09:20:47;;;;;;;;;15.33;13.67;;;;;18.29;55.95;102296.31;5015923;28;45355;-77
2023/10/05 09:23:24;;;;;;;;;21.00;16.67;;;;;18.06;56.48;102223.09;5014817;28;45561;-78
2023/10/05 09:25:50;;;;;;;;;20.33;16.00;;;;;18.74;55.22;102296.91;5015963;28;45605;-77
2023/10/05 09:28:45;;;;;;;;;26.00;18.33;;;;;18.73;55.14;102303.13;5017119;28;45525;-74
2023/10/05 09:31:11;;;;;;;;;15.00;13.67;;;;;18.59;55.50;102282.00;5015988;28;45491;-72
2023/10/05 09:33:49;;;;;;;;;19.67;16.00;;;;;19.01;54.34;102323.31;5021975;28;45604;-73
2023/10/05 09:36:19;;;;;;;;;20.00;14.33;;;;;19.26;54.12;102328.41;5015139;28;45518;-73
2023/10/05 09:38:46;;;;;;;;;21.33;17.67;;;;;19.46;53.00;102317.63;5016199;28;45329;-73
2023/10/05 09:41:17;;;;;;;;;19.33;17.00;;;;;19.36;52.50;102287.59;5015819;28;45430;-77
2023/10/05 09:43:44;;;;;;;;;24.67;17.67;;;;;19.61;52.04;102308.59;5016069;28;45381;-74
2023/10/05 09:46:10;;;;;;;;;17.67;13.33;;;;;19.70;52.16;102284.59;5015504;28;45421;-72
2023/10/05 09:48:38;;;;;;;;;19.00;17.67;;;;;19.82;51.62;102319.03;5014268;28;45439;-73
2023/10/05 09:51:08;;;;;;;;;22.00;18.67;;;;;19.69;51.33;102290.81;5015868;28;45834;-71
2023/10/05 09:53:38;;;;;;;;;20.67;15.00;;;;;19.96;50.73;102318.00;5016573;28;45379;-73
2023/10/05 09:56:04;;;;;;;;;23.00;16.00;;;;;19.63;51.27;102289.06;5015383;28;46060;-77
2023/10/05 09:58:31;;;;;;;;;19.33;15.33;;;;;20.04;51.17;102310.78;5023200;28;45429;-74
2023/10/05 10:00:57;;;;;;;;;21.33;15.67;;;;;20.13;50.59;102323.97;5014922;28;45319;-72
2023/10/05 10:03:23;;;;;;;;;14.33;10.33;;;;;20.17;50.68;102274.25;5020073;28;45672;-75
2023/10/05 10:06:09;;;;;;;;;20.50;14.00;;;;;20.35;50.18;102279.34;5018828;28;46044;-76
2023/10/05 10:08:51;;;;;;;;;22.33;20.00;;;;;20.37;50.04;102292.63;5020024;28;45383;-78
2023/10/05 10:11:18;;;;;;;;;15.33;15.33;;;;;20.26;49.51;102245.78;5007119;28;45305;-73
2023/10/05 10:14:01;;;;;;;;;18.00;16.67;;;;;20.76;49.78;102293.81;5019811;28;45346;-75
2023/10/05 10:16:28;;;;;;;;;11.67;11.67;;;;;20.69;49.14;102262.88;5021068;28;47047;-75
2023/10/05 10:19:04;;;;;;;;;16.00;12.33;;;;;21.09;48.74;102279.06;5020414;28;45475;-76
2023/10/05 10:21:35;;;;;;;;;17.00;17.00;;;;;21.06;47.77;102223.19;5018900;28;45442;-74
2023/10/05 10:24:04;;;;;;;;;23.67;17.33;;;;;21.15;46.74;102193.72;5019549;28;45668;-73
2023/10/05 10:27:18;;;;;;;;;19.67;15.33;;;;;21.50;46.15;102284.63;5021141;28;45406;-72
2023/10/05 10:29:55;;;;;;;;;17.00;10.33;;;;;21.18;47.26;102257.59;5016960;28;45341;-72
2023/10/05 10:32:23;;;;;;;;;12.00;11.67;;;;;20.96;46.79;102190.53;5018024;28;45503;-76
2023/10/05 10:34:50;;;;;;;;;14.33;14.00;;;;;20.49;46.91;102157.56;5018687;28;45658;-74
2023/10/05 10:37:44;;;;;;;;;15.67;15.00;;;;;20.72;48.33;102270.84;5017794;28;45839;-76
2023/10/05 10:40:47;;;;;;;;;17.00;13.00;;;;;19.94;48.71;102187.69;5017820;28;45378;-78
2023/10/05 10:45:41;;;;;;;;;11.33;11.33;;;;;19.89;49.67;102282.63;5017846;28;45370;-68
2023/10/05 10:48:20;;;;;;;;;12.00;10.00;;;;;19.76;50.77;102273.00;5017160;28;45418;-71
2023/10/05 10:50:52;;;;;;;;;16.33;13.67;;;;;19.94;49.48;102285.22;5016544;28;45590;-71
2023/10/05 10:53:17;;;;;;;;;11.33;10.00;;;;;19.87;49.07;102271.09;5029991;28;45450;-72
2023/10/05 10:55:58;;;;;;;;;10.33;10.00;;;;;20.49;48.19;102290.66;5016624;28;45515;-72
2023/10/05 10:58:30;;;;;;;;;8.00;8.00;;;;;21.02;46.50;102277.41;5016816;28;45494;-72
2023/10/05 11:01:02;;;;;;;;;8.67;7.33;;;;;21.94;45.20;102289.03;5016261;28;45751;-72
2023/10/05 11:03:30;;;;;;;;;8.00;7.00;;;;;24.41;40.61;102259.50;5018272;28;45356;-70
2023/10/05 11:06:03;;;;;;;;;11.33;8.33;;;;;26.11;38.70;102280.41;5019221;28;45228;-73
2023/10/05 11:08:40;;;;;;;;;13.33;8.67;;;;;26.18;37.95;102273.88;5018113;28;46755;-74
2023/10/05 11:11:15;;;;;;;;;7.00;6.67;;;;;25.67;37.18;102209.59;5040389;28;45509;-75
2023/10/05 11:14:05;;;;;;;;;8.67;5.67;;;;;28.42;32.95;102276.66;5030762;28;45504;-72
2023/10/05 11:16:49;;;;;;;;;4.50;4.50;;;;;29.98;30.71;102274.94;5017119;28;45453;-71
2023/10/05 11:19:24;;;;;;;;;5.75;5.75;;;;;30.23;30.30;102272.59;5020346;28;46459;-74
2023/10/05 11:21:50;;;;;;;;;5.50;5.50;;;;;31.16;29.80;102265.41;5018208;28;46338;-75
2023/10/05 11:24:19;;;;;;;;;6.00;5.75;;;;;32.38;27.36;102150.13;5016758;28;45450;-73
2023/10/05 11:29:33;;;;;;;;;4.25;4.25;;;;;30.26;28.56;102163.47;5006231;28;45666;-74
2023/10/05 11:32:03;;;;;;;;;10.80;6.20;;;;;28.50;30.83;102190.09;5016831;28;45430;-76
2023/10/05 11:34:29;;;;;;;;;13.00;7.25;;;;;27.35;32.16;102262.81;5017845;28;45438;-73
2023/10/05 11:36:58;;;;;;;;;7.00;6.25;;;;;26.07;34.74;102256.41;5017038;28;45318;-73
2023/10/05 11:39:36;;;;;;;;;9.25;7.25;;;;;26.14;35.00;102253.44;5027596;28;47230;-76
2023/10/05 11:42:04;;;;;;;;;9.50;8.50;;;;;26.79;33.50;102226.63;5011407;28;45328;-73
2023/10/05 11:44:30;;;;;;;;;10.00;8.25;;;;;27.23;33.15;102237.31;5018206;28;45315;-73
2023/10/05 11:46:55;;;;;;;;;12.75;11.00;;;;;27.88;31.97;102235.25;5018096;28;45453;-73
2023/10/05 11:49:30;;;;;;;;;9.00;9.00;;;;;28.27;31.12;102212.75;5018099;28;45505;-71
2023/10/05 11:51:57;;;;;;;;;7.25;7.25;;;;;28.49;30.88;102223.38;5017923;28;45826;-72
2023/10/05 11:54:30;;;;;;;;;6.75;5.25;;;;;28.61;30.53;102163.44;5017134;28;45564;-74
2023/10/05 11:56:56;;;;;;;;;10.00;8.75;;;;;30.10;28.48;102225.59;5016023;28;45455;-73